Time;durP1;ratioP1;P1;durP2;ratioP2;P2;SDS_P1;SDS_P2;PMS_P1;PMS_P2;Temp;Humidity;BMP_temperature;BMP_pressure;BME280_temperature;BME280_humidity;BME280_pressure;Samples;Min_cycle;Max_cycle;Signal;HPM_P1;HPM_P2
2022/10/24 00:02:12;;;;;;;4.43;2.20;;;;;;;17.63;74.63;100264.84;6392514;22;19917;-88
2022/10/24 00:14:58;;;;;;;3.38;2.20;;;;;;;17.63;74.50;100244.03;6394925;22;20021;-88
2022/10/24 00:20:56;;;;;;;3.28;2.38;;;;;;;17.62;74.33;100239.72;6395221;22;20067;-87
2022/10/24 00:26:15;;;;;;;3.92;2.00;;;;;;;17.63;74.43;100249.22;6372926;22;20027;-88
2022/10/24 00:32:42;;;;;;;3.20;1.90;;;;;;;17.64;74.26;100250.97;6390585;22;20195;-90
2022/10/24 00:35:16;;;;;;;3.15;1.80;;;;;;;17.63;74.39;100244.88;6389700;22;20028;-89
2022/10/24 00:37:42;;;;;;;3.40;1.70;;;;;;;17.62;74.17;100231.91;6335618;22;20010;-89
2022/10/24 00:43:35;;;;;;;2.22;1.63;;;;;;;17.62;74.23;100229.31;6380365;22;20018;-89
2022/10/24 00:46:02;;;;;;;2.40;1.60;;;;;;;17.64;74.07;100222.34;6361938;22;20006;-90
2022/10/24 00:58:36;;;;;;;2.78;1.65;;;;;;;17.65;74.25;100227.47;6371829;22;20023;-89
2022/10/24 01:01:03;;;;;;;2.92;1.63;;;;;;;17.65;74.44;100231.84;6328969;22;20409;-90
2022/10/24 01:03:29;;;;;;;3.97;1.70;;;;;;;17.65;74.17;100224.03;6329321;22;20067;-89
2022/10/24 01:30:35;;;;;;;2.72;1.65;;;;;;;17.67;74.33;100191.03;6388808;22;20490;-84
2022/10/24 01:33:17;;;;;;;3.53;1.80;;;;;;;17.66;74.41;100186.75;6364142;22;20022;-85
2022/10/24 01:35:50;;;;;;;2.50;1.58;;;;;;;17.66;74.28;100182.38;6336804;22;20490;-84
2022/10/24 01:41:41;;;;;;;2.65;1.58;;;;;;;17.66;74.11;100184.13;6393347;22;20071;-86
2022/10/24 01:44:06;;;;;;;3.08;1.70;;;;;;;17.66;74.19;100184.97;6363586;22;20014;-87
2022/10/24 01:46:59;;;;;;;2.15;1.48;;;;;;;17.66;74.10;100178.94;6362983;22;20007;-86
2022/10/24 01:49:36;;;;;;;2.85;1.50;;;;;;;17.67;74.42;100175.44;6355894;22;20038;-85
2022/10/24 01:52:30;;;;;;;2.53;1.60;;;;;;;17.67;74.32;100172.81;6385496;22;20414;-85
2022/10/24 01:58:51;;;;;;;1.92;1.30;;;;;;;17.66;74.24;100161.56;6393553;22;20022;-85
2022/10/24 02:01:39;;;;;;;2.97;1.58;;;;;;;17.65;74.17;100157.22;6322022;22;20082;-85
2022/10/24 02:04:08;;;;;;;2.65;1.40;;;;;;;17.67;74.50;100154.59;6271482;22;20017;-85
2022/10/24 02:06:40;;;;;;;2.80;1.60;;;;;;;17.66;74.25;100152.91;6297474;22;20026;-89
2022/10/24 02:09:18;;;;;;;3.67;1.50;;;;;;;17.65;74.08;100144.22;6296927;22;20015;-89
2022/10/24 02:31:24;;;;;;;2.30;1.40;;;;;;;17.60;73.70;100140.03;6381071;22;20082;-89
2022/10/24 02:34:13;;;;;;;2.47;1.50;;;;;;;17.60;73.56;100143.47;6365984;22;20039;-89
2022/10/24 02:36:43;;;;;;;3.10;1.10;;;;;;;17.62;73.64;100146.06;6300411;22;20014;-90
2022/10/24 02:42:36;;;;;;;1.90;1.20;;;;;;;17.62;73.58;100143.44;6367756;22;20022;-90
2022/10/24 02:45:06;;;;;;;2.17;1.33;;;;;;;17.61;73.44;100154.72;6337371;22;20018;-87
2022/10/24 03:29:27;;;;;;;2.13;1.00;;;;;;;17.63;73.11;100113.94;6393938;22;20021;-90
2022/10/24 03:35:15;;;;;;;1.98;1.10;;;;;;;17.64;73.10;100121.72;6395502;22;20044;-89
2022/10/24 03:41:11;;;;;;;2.05;1.10;;;;;;;17.63;72.89;100109.56;6377533;22;20022;-87
2022/10/24 03:43:36;;;;;;;1.60;1.10;;;;;;;17.63;72.83;100125.19;6344200;22;20044;-89
2022/10/24 03:59:30;;;;;;;1.77;1.10;;;;;;;17.64;72.70;100118.25;6363237;22;20022;-91
2022/10/24 04:05:24;;;;;;;2.15;1.25;;;;;;;17.65;73.05;100117.34;6326251;22;20401;-89
2022/10/24 04:07:49;;;;;;;3.03;1.10;;;;;;;17.64;72.70;100124.31;6269943;22;20039;-89
2022/10/24 04:16:50;;;;;;;2.03;0.85;;;;;;;17.65;72.74;100117.34;6368580;22;20119;-89
2022/10/24 04:25:51;;;;;;;2.15;0.85;;;;;;;17.64;72.67;100121.72;6398514;22;20024;-90
2022/10/24 04:28:16;;;;;;;1.55;1.05;;;;;;;17.66;72.93;100112.13;6366223;22;19990;-89
2022/10/24 04:30:42;;;;;;;4.35;1.10;;;;;;;17.64;72.57;100119.09;6383000;22;20075;-89
2022/10/24 04:33:07;;;;;;;2.08;1.05;;;;;;;17.65;72.74;100122.56;6354771;22;20041;-89
2022/10/24 04:35:46;;;;;;;2.33;1.00;;;;;;;17.65;72.44;100112.16;6327343;22;20002;-89
2022/10/24 04:38:22;;;;;;;3.97;1.20;;;;;;;17.66;72.76;100108.69;6354984;22;20025;-89
2022/10/24 04:40:51;;;;;;;2.55;1.10;;;;;;;17.66;72.71;100100.88;6352915;22;20032;-89
2022/10/24 04:43:18;;;;;;;2.50;1.10;;;;;;;17.66;72.73;100103.47;6328283;22;20002;-89
2022/10/24 04:45:44;;;;;;;1.83;0.90;;;;;;;17.65;72.69;100101.75;6353079;22;20426;-88
2022/10/24 04:48:43;;;;;;;1.10;0.90;;;;;;;17.67;72.91;100102.56;6355957;22;20070;-88
2022/10/24 04:51:09;;;;;;;1.73;1.08;;;;;;;17.64;72.71;100093.09;6358429;22;20018;-89
2022/10/24 04:53:40;;;;;;;3.67;1.20;;;;;;;17.64;72.51;100087.03;6331603;22;20090;-90
2022/10/24 04:56:06;;;;;;;1.73;0.85;;;;;;;17.65;72.62;100099.13;6356366;22;20006;-90
2022/10/24 04:58:31;;;;;;;2.13;1.00;;;;;;;17.64;72.60;100092.25;6327570;22;20094;-89
2022/10/24 05:00:57;;;;;;;1.90;1.02;;;;;;;17.66;72.61;100093.06;6351211;22;20002;-89
2022/10/24 05:03:56;;;;;;;3.80;1.33;;;;;;;17.66;72.51;100095.66;6327362;22;20033;-89
2022/10/24 05:06:22;;;;;;;8.73;2.88;;;;;;;17.66;72.50;100095.66;6358461;22;20018;-89
2022/10/24 05:08:47;;;;;;;8.65;3.30;;;;;;;17.66;72.59;100098.28;6361162;22;20029;-85
2022/10/24 05:17:19;;;;;;;8.23;3.00;;;;;;;17.66;72.69;100086.09;6388269;22;20098;-86
2022/10/24 05:19:44;;;;;;;6.30;2.50;;;;;;;17.68;72.66;100096.47;6361762;22;20048;-85
2022/10/24 05:22:10;;;;;;;7.15;2.60;;;;;;;17.66;72.70;100090.47;6329539;22;19998;-84
2022/10/24 05:24:35;;;;;;;7.15;2.92;;;;;;;17.66;72.47;100085.25;6376183;22;20051;-85
2022/10/24 05:27:00;;;;;;;6.07;2.80;;;;;;;17.66;72.64;100096.50;6354170;22;20002;-88
2022/10/24 05:29:26;;;;;;;7.35;2.40;;;;;;;17.65;72.40;100089.59;6326617;22;20025;-85
2022/10/24 05:31:51;;;;;;;8.02;2.70;;;;;;;17.66;72.69;100091.31;6327237;22;20017;-86
2022/10/24 05:34:17;;;;;;;7.60;2.53;;;;;;;17.68;72.69;100096.47;6329773;22;20067;-86
2022/10/24 05:36:42;;;;;;;6.45;2.80;;;;;;;17.67;72.66;100094.75;6329108;22;20044;-85
2022/10/24 05:39:08;;;;;;;4.45;2.17;;;;;;;17.67;72.50;100082.59;6355798;22;20006;-86
2022/10/24 05:41:33;;;;;;;7.45;2.10;;;;;;;17.67;72.80;100079.16;6353586;22;20042;-85
2022/10/24 05:43:58;;;;;;;6.47;2.67;;;;;;;17.67;72.57;100084.34;6325355;22;20019;-86
2022/10/24 05:46:24;;;;;;;7.88;2.42;;;;;;;17.68;72.50;100084.34;6349791;22;20003;-86
2022/10/24 05:48:49;;;;;;;7.80;2.83;;;;;;;17.67;72.55;100087.81;6323821;22;20006;-84
2022/10/24 05:51:15;;;;;;;9.13;2.30;;;;;;;17.67;72.51;100082.59;6330738;22;20010;-85
2022/10/24 05:53:40;;;;;;;10.73;4.35;;;;;;;17.67;72.43;100076.56;6326434;22;20006;-85
2022/10/24 05:56:06;;;;;;;9.48;3.67;;;;;;;17.68;72.81;100078.25;6327114;22;20009;-85
2022/10/24 05:58:32;;;;;;;10.57;4.30;;;;;;;17.69;72.61;100087.78;6324568;22;20018;-85
2022/10/24 06:00:57;;;;;;;8.45;3.55;;;;;;;17.68;72.82;100099.06;6347753;22;20010;-85
2022/10/24 06:03:24;;;;;;;10.35;3.80;;;;;;;17.69;72.61;100077.38;6326367;22;20030;-86
2022/10/24 06:05:49;;;;;;;11.10;3.90;;;;;;;17.69;72.59;100092.97;6353410;22;20002;-85
2022/10/24 06:08:15;;;;;;;8.57;3.65;;;;;;;17.68;72.51;100089.53;6351934;22;20010;-88
2022/10/24 06:10:40;;;;;;;9.23;3.45;;;;;;;17.68;72.57;100093.84;6352707;22;20073;-89
2022/10/24 06:13:06;;;;;;;8.02;3.67;;;;;;;17.68;72.88;100094.75;6379681;22;20628;-87
2022/10/24 06:15:32;;;;;;;9.85;3.70;;;;;;;17.69;72.73;100106.00;6354127;22;20059;-86
2022/10/24 06:17:57;;;;;;;9.52;3.35;;;;;;;17.68;72.66;100104.25;6355853;22;20053;-88
2022/10/24 06:20:22;;;;;;;9.50;3.47;;;;;;;17.68;72.58;100097.34;6332818;22;20002;-87
2022/10/24 06:22:48;;;;;;;9.57;3.45;;;;;;;17.68;72.45;100110.34;6309593;22;20006;-88
2022/10/24 06:25:14;;;;;;;8.38;3.35;;;;;;;17.67;72.61;100111.22;6388810;22;19998;-87
2022/10/24 06:27:40;;;;;;;7.80;3.28;;;;;;;17.67;72.41;100113.81;6358194;22;20025;-88
2022/10/24 06:30:09;;;;;;;7.05;2.80;;;;;;;17.69;72.50;100108.59;6359977;22;20005;-88
2022/10/24 06:32:34;;;;;;;7.78;3.05;;;;;;;17.67;72.52;100129.44;6393272;22;20002;-83
2022/10/24 06:35:00;;;;;;;7.85;2.65;;;;;;;17.69;72.52;100121.59;6360226;22;20001;-89
2022/10/24 06:37:27;;;;;;;8.63;2.88;;;;;;;17.69;72.18;100134.63;6309244;22;20006;-88
2022/10/24 06:40:33;;;;;;;6.13;2.67;;;;;;;17.69;72.32;100138.06;6333708;22;20024;-87
2022/10/24 06:42:59;;;;;;;7.25;2.70;;;;;;;17.68;72.55;100138.09;6362337;22;20097;-87
2022/10/24 06:45:24;;;;;;;6.65;2.80;;;;;;;17.69;72.54;100156.28;6333896;22;20011;-88
2022/10/24 06:47:51;;;;;;;6.65;2.95;;;;;;;17.69;72.47;100184.06;6331418;22;20013;-86
2022/10/24 06:50:16;;;;;;;6.57;2.55;;;;;;;17.70;72.59;100188.34;6307665;22;20022;-88
2022/10/24 06:52:42;;;;;;;7.18;2.60;;;;;;;17.69;72.27;100181.47;6353846;22;20002;-87
2022/10/24 06:55:08;;;;;;;4.25;2.25;;;;;;;17.70;72.48;100180.56;6353423;22;20013;-87
2022/10/24 07:00:55;;;;;;;5.97;2.60;;;;;;;17.68;72.33;100190.13;6389568;22;20025;-88
2022/10/24 07:03:21;;;;;;;6.55;2.60;;;;;;;17.68;72.21;100201.41;6366604;22;19999;-88
2022/10/24 07:05:46;;;;;;;5.97;2.60;;;;;;;17.69;72.45;100202.28;6306691;22;20039;-87
2022/10/24 07:08:11;;;;;;;5.55;2.58;;;;;;;17.69;72.37;100199.66;6334010;22;20035;-86
2022/10/24 07:10:37;;;;;;;5.60;2.45;;;;;;;17.69;72.17;100199.66;6311893;22;20009;-87
2022/10/24 07:13:02;;;;;;;6.65;2.30;;;;;;;17.69;72.47;100213.53;6303021;22;20010;-88
2022/10/24 07:15:28;;;;;;;6.07;2.22;;;;;;;17.70;72.14;100222.19;6336288;22;20022;-83
2022/10/24 07:17:53;;;;;;;5.82;2.40;;;;;;;17.71;72.37;100208.31;6329589;22;20110;-88
2022/10/24 07:20:18;;;;;;;6.20;2.40;;;;;;;17.73;72.24;100216.09;6324594;22;20006;-87
2022/10/24 07:22:44;;;;;;;7.22;2.28;;;;;;;17.76;72.42;100229.88;6348329;22;20013;-86
2022/10/24 07:25:10;;;;;;;6.20;2.20;;;;;;;17.81;72.43;100233.28;6347563;22;20006;-87
2022/10/24 07:27:35;;;;;;;4.45;2.25;;;;;;;17.83;72.69;100228.03;6321107;22;20017;-87
2022/10/24 07:30:01;;;;;;;4.68;2.42;;;;;;;17.83;72.53;100235.84;6320627;22;20003;-87
2022/10/24 07:32:26;;;;;;;5.90;2.38;;;;;;;17.83;72.63;100230.66;6347505;22;20006;-88
2022/10/24 07:34:52;;;;;;;5.47;2.08;;;;;;;17.85;72.46;100244.47;6320659;22;20055;-88
2022/10/24 07:37:17;;;;;;;5.03;2.47;;;;;;;17.84;72.51;100238.44;6347447;22;20338;-88
2022/10/24 07:39:45;;;;;;;5.00;2.30;;;;;;;17.85;72.78;100236.69;6346157;22;20007;-87
2022/10/24 07:42:12;;;;;;;5.18;2.10;;;;;;;17.86;72.79;100234.06;6320169;22;20014;-86
2022/10/24 07:44:38;;;;;;;5.10;2.03;;;;;;;17.85;72.59;100249.69;6321871;22;20075;-90
2022/10/24 07:47:05;;;;;;;5.30;2.15;;;;;;;17.84;72.88;100246.25;6346929;22;20326;-92
2022/10/24 07:49:32;;;;;;;6.93;2.28;;;;;;;17.84;72.68;100250.59;6346178;22;20052;-90
2022/10/24 07:51:58;;;;;;;6.47;2.40;;;;;;;17.84;72.83;100250.59;6372053;22;20003;-90
2022/10/24 07:54:25;;;;;;;4.28;2.10;;;;;;;17.84;72.79;100259.25;6346870;22;20006;-91
2022/10/24 07:56:50;;;;;;;7.00;2.30;;;;;;;17.86;72.85;100248.81;6347031;22;20342;-90
2022/10/24 07:59:16;;;;;;;3.40;1.83;;;;;;;17.83;72.77;100259.28;6365837;22;20058;-91
2022/10/24 08:01:41;;;;;;;5.18;1.95;;;;;;;17.81;73.00;100272.31;6320150;22;20334;-91
2022/10/24 08:04:06;;;;;;;4.63;1.98;;;;;;;17.83;72.84;100273.16;6319961;22;20006;-90
2022/10/24 08:06:32;;;;;;;5.68;2.05;;;;;;;17.80;72.52;100270.56;6294466;22;20418;-91
2022/10/24 08:08:57;;;;;;;5.30;2.10;;;;;;;17.82;72.60;100278.41;6293916;22;20085;-92
2022/10/24 08:11:25;;;;;;;4.75;2.10;;;;;;;17.84;72.76;100287.03;6294262;22;20065;-90
2022/10/24 08:13:53;;;;;;;5.63;2.00;;;;;;;17.91;72.56;100295.59;6345944;22;20008;-91
2022/10/24 08:16:21;;;;;;;3.65;1.85;;;;;;;17.97;72.80;100298.91;6320258;22;19999;-92
2022/10/24 08:18:48;;;;;;;5.82;1.90;;;;;;;18.00;72.86;100303.19;6345532;22;20423;-92
2022/10/24 08:21:15;;;;;;;6.07;2.20;;;;;;;18.04;72.77;100294.44;6346115;22;20435;-92
2022/10/24 08:23:43;;;;;;;4.05;1.80;;;;;;;18.08;72.71;100296.09;6349273;22;20006;-91
2022/10/24 08:26:12;;;;;;;3.92;1.83;;;;;;;18.08;73.00;100290.91;6352574;22;20007;-92
2022/10/24 08:28:38;;;;;;;4.53;1.83;;;;;;;18.05;72.68;100296.16;6353413;22;20002;-91
2022/10/24 08:31:10;;;;;;;4.05;2.03;;;;;;;18.03;72.65;100297.91;6300508;22;20032;-92
2022/10/24 08:33:36;;;;;;;4.90;1.90;;;;;;;18.01;72.73;100297.13;6354326;22;20003;-91
2022/10/24 08:36:05;;;;;;;4.43;1.67;;;;;;;18.01;72.84;100316.19;6368961;22;19990;-91
2022/10/24 08:38:31;;;;;;;5.28;1.85;;;;;;;18.02;73.10;100293.63;6373500;22;19990;-93
2022/10/24 08:40:57;;;;;;;3.70;1.60;;;;;;;18.01;72.83;100302.31;6348591;22;20017;-91
2022/10/24 08:43:23;;;;;;;3.95;1.75;;;;;;;18.02;72.94;100310.09;6372277;22;20061;-91
2022/10/24 08:45:52;;;;;;;4.53;1.88;;;;;;;18.02;72.70;100314.44;6320871;22;20001;-92
2022/10/24 08:48:31;;;;;;;3.30;1.63;;;;;;;18.00;72.70;100314.47;6369883;22;20032;-91
2022/10/24 08:51:50;;;;;;;5.38;1.77;;;;;;;18.02;72.91;100322.25;6387862;22;20014;-91
2022/10/24 08:54:22;;;;;;;5.18;1.73;;;;;;;18.02;72.70;100324.84;6322419;22;20010;-92
2022/10/24 08:56:50;;;;;;;4.25;1.80;;;;;;;18.04;72.84;100334.34;6383339;22;20059;-91
2022/10/24 08:59:16;;;;;;;4.72;1.58;;;;;;;18.07;73.02;100329.09;6355002;22;20069;-91
2022/10/24 09:01:44;;;;;;;3.90;1.85;;;;;;;18.07;72.53;100333.44;6328485;22;20007;-91
2022/10/24 09:04:16;;;;;;;3.58;1.60;;;;;;;18.10;72.57;100338.59;6354644;22;19994;-92
2022/10/24 09:06:42;;;;;;;5.00;1.80;;;;;;;18.08;72.53;100340.38;6380610;22;20002;-91
2022/10/24 09:09:07;;;;;;;3.83;1.63;;;;;;;18.08;72.43;100351.63;6299476;22;20018;-92
2022/10/24 09:11:39;;;;;;;4.40;1.63;;;;;;;18.10;72.84;100346.41;6349306;22;20059;-91
2022/10/24 09:14:25;;;;;;;4.38;1.85;;;;;;;18.09;72.45;100357.69;6350998;22;20033;-93
2022/10/24 09:17:11;;;;;;;3.70;1.52;;;;;;;18.07;72.69;100360.34;6382223;22;20019;-92
2022/10/24 09:19:37;;;;;;;2.83;1.30;;;;;;;18.08;72.44;100358.59;6353633;22;20071;-92
2022/10/24 09:22:03;;;;;;;3.58;1.55;;;;;;;18.06;72.32;100366.44;6379120;22;19998;-92
2022/10/24 09:31:26;;;;;;;4.30;1.50;;;;;;;18.08;72.17;100374.22;6377500;22;20075;-92
2022/10/24 09:33:52;;;;;;;2.78;1.55;;;;;;;18.11;72.00;100386.31;6352966;22;20006;-90
2022/10/24 09:36:23;;;;;;;3.88;1.33;;;;;;;18.12;72.32;100390.63;6348650;22;20081;-91
2022/10/24 09:38:49;;;;;;;4.45;1.52;;;;;;;18.11;72.12;100389.78;6376799;22;20052;-92
2022/10/24 09:41:33;;;;;;;3.90;1.50;;;;;;;18.10;71.97;100390.66;6349179;22;20002;-92
2022/10/24 09:44:00;;;;;;;3.40;1.23;;;;;;;18.08;72.09;100389.84;6389870;22;20006;-91
2022/10/24 09:46:48;;;;;;;4.75;1.52;;;;;;;18.10;72.16;100408.91;6385719;22;20013;-92
2022/10/24 09:49:21;;;;;;;3.22;1.20;;;;;;;18.09;72.11;100410.66;6352066;22;20022;-92
2022/10/24 09:51:58;;;;;;;;;;;;;;;18.11;71.82;100421.03;6377763;22;20006;-92
2022/10/24 09:54:31;;;;;;;3.17;1.25;;;;;;;18.14;72.18;100410.56;6347988;22;19909;-92
2022/10/24 09:57:04;;;;;;;4.45;1.30;;;;;;;18.17;72.08;100418.31;6347004;22;20018;-92
2022/10/24 09:59:35;;;;;;;2.83;1.30;;;;;;;18.17;72.07;100428.72;6347129;22;20005;-92
2022/10/24 10:02:36;;;;;;;4.10;1.35;;;;;;;18.20;72.01;100440.81;6346527;22;20236;-91
2022/10/24 10:05:01;;;;;;;4.50;1.30;;;;;;;18.19;71.94;100437.38;6352921;22;20079;-92
2022/10/24 10:07:30;;;;;;;2.88;1.10;;;;;;;18.16;72.25;100436.56;6363069;22;20011;-91
2022/10/24 10:09:59;;;;;;;4.43;1.35;;;;;;;18.16;72.25;100442.66;6346717;22;20029;-91
2022/10/24 10:12:35;;;;;;;3.72;1.80;;;;;;;18.19;72.13;100439.13;6346356;22;20007;-92
2022/10/24 10:15:15;;;;;;;3.67;1.38;;;;;;;18.18;72.34;100445.19;6349743;22;19998;-92
2022/10/24 10:17:48;;;;;;;3.13;1.13;;;;;;;18.14;72.13;100443.53;6351215;22;20011;-90
2022/10/24 10:20:55;;;;;;;2.88;1.48;;;;;;;18.14;72.14;100449.63;6375808;22;20002;-91
2022/10/24 10:24:00;;;;;;;3.40;1.33;;;;;;;18.14;72.17;100461.75;6345939;22;20081;-92
2022/10/24 10:26:29;;;;;;;5.07;1.52;;;;;;;18.12;72.06;100473.94;6346200;22;20022;-91
2022/10/24 10:29:32;;;;;;;3.10;1.35;;;;;;;18.11;71.95;100473.09;6346072;22;20303;-91
2022/10/24 10:38:51;;;;;;;2.45;1.10;;;;;;;18.16;72.00;100489.53;6375020;22;20013;-90
2022/10/24 10:41:32;;;;;;;3.58;1.40;;;;;;;18.15;71.91;100476.53;6347366;22;20010;-90
2022/10/24 10:44:10;;;;;;;3.28;1.20;;;;;;;18.16;71.78;100483.44;6347087;22;19998;-90
2022/10/24 10:47:03;;;;;;;4.15;1.35;;;;;;;18.15;71.87;100498.19;6346838;22;20013;-88
2022/10/24 10:49:40;;;;;;;2.97;1.10;;;;;;;18.16;71.64;100504.25;6366223;22;20011;-89
2022/10/24 10:52:29;;;;;;;4.53;1.33;;;;;;;18.16;71.82;100505.16;6347207;22;20029;-88
2022/10/24 10:55:03;;;;;;;3.08;1.30;;;;;;;18.18;71.69;100510.31;6347345;22;19994;-90
2022/10/24 10:58:04;;;;;;;3.28;1.20;;;;;;;18.17;71.69;100501.66;6346907;22;20014;-91
2022/10/24 11:00:42;;;;;;;3.33;1.15;;;;;;;18.17;71.80;100517.28;6346763;22;20307;-90
2022/10/24 11:03:25;;;;;;;2.88;1.08;;;;;;;18.17;71.67;100519.88;6347298;22;20002;-91
2022/10/24 11:06:12;;;;;;;2.55;1.00;;;;;;;18.21;71.72;100516.34;6373289;22;20426;-91
2022/10/24 11:08:59;;;;;;;4.22;1.45;;;;;;;18.22;71.65;100530.22;6348385;22;20097;-91
2022/10/24 11:11:31;;;;;;;3.10;1.35;;;;;;;18.23;71.45;100531.94;6347583;22;20010;-90
2022/10/24 11:14:33;;;;;;;4.28;1.48;;;;;;;18.24;71.65;100531.03;6348251;22;20024;-90
2022/10/24 11:17:29;;;;;;;3.38;1.23;;;;;;;18.23;71.40;100545.81;6348367;22;20025;-92
2022/10/24 11:20:14;;;;;;;1.98;0.98;;;;;;;18.25;71.60;100535.38;6348480;22;19994;-90
2022/10/24 11:22:46;;;;;;;3.70;1.20;;;;;;;18.23;71.32;100527.59;6348250;22;20093;-90
2022/10/24 11:25:34;;;;;;;3.47;1.10;;;;;;;18.25;71.54;100538.84;6374714;22;20055;-91
2022/10/24 11:28:11;;;;;;;2.90;1.17;;;;;;;18.27;71.67;100554.44;6344645;22;20010;-89
2022/10/24 11:31:00;;;;;;;2.10;1.00;;;;;;;18.25;71.43;100557.06;6354248;22;19987;-86
2022/10/24 11:33:35;;;;;;;3.30;1.15;;;;;;;18.25;71.20;100564.03;6348913;22;20014;-90
2022/10/24 11:36:13;;;;;;;2.25;0.98;;;;;;;18.26;71.37;100566.59;6344556;22;20036;-88
2022/10/24 11:38:47;;;;;;;2.45;1.08;;;;;;;18.28;71.49;100557.00;6344579;22;20016;-89
2022/10/24 11:41:27;;;;;;;3.05;1.10;;;;;;;18.25;71.38;100574.44;6344357;22;20089;-89
2022/10/24 11:43:55;;;;;;;3.30;1.35;;;;;;;18.26;71.39;100573.56;6344640;22;20418;-89
2022/10/24 11:46:35;;;;;;;3.55;1.20;;;;;;;18.24;71.20;100572.72;6370934;22;20002;-90
2022/10/24 11:49:35;;;;;;;2.33;0.88;;;;;;;18.22;71.13;100569.28;6370998;22;20431;-88
2022/10/24 11:52:13;;;;;;;2.58;0.90;;;;;;;18.22;71.31;100574.50;6328547;22;20012;-89
2022/10/24 11:54:49;;;;;;;3.13;1.10;;;;;;;18.20;71.00;100578.84;6344675;22;20090;-89
2022/10/24 11:57:20;;;;;;;3.22;1.10;;;;;;;18.19;71.00;100579.75;6344235;22;20097;-89
2022/10/24 11:59:46;;;;;;;3.10;1.10;;;;;;;18.22;71.14;100587.50;6344435;22;20006;-88
2022/10/24 12:02:34;;;;;;;2.92;1.10;;;;;;;18.23;70.80;100584.88;6319179;22;20440;-89
2022/10/24 12:05:26;;;;;;;1.77;0.80;;;;;;;18.23;71.14;100603.13;6344552;22;20044;-89
2022/10/24 12:08:16;;;;;;;1.83;1.00;;;;;;;18.22;71.03;100587.50;6344638;22;20139;-90
2022/10/24 12:11:35;;;;;;;2.63;0.90;;;;;;;18.20;71.09;100597.94;6344633;22;20011;-88
2022/10/24 12:14:24;;;;;;;2.65;1.00;;;;;;;18.22;71.07;100593.56;6309845;22;20026;-83
2022/10/24 12:17:19;;;;;;;3.78;1.02;;;;;;;18.23;71.07;100595.31;6345681;22;20014;-88
2022/10/24 12:19:45;;;;;;;3.28;0.98;;;;;;;18.24;71.14;100599.63;6349916;22;20418;-89
2022/10/24 12:22:25;;;;;;;2.47;1.10;;;;;;;18.24;70.81;100596.16;6320572;22;20010;-90
2022/10/24 12:25:03;;;;;;;4.30;1.08;;;;;;;18.24;70.87;100589.19;6367884;22;19979;-88
2022/10/24 12:27:35;;;;;;;2.35;0.85;;;;;;;18.25;71.07;100598.75;6381235;22;20022;-88
2022/10/24 12:30:18;;;;;;;2.78;0.98;;;;;;;18.25;70.75;100601.34;6381950;22;19998;-87
2022/10/24 12:32:46;;;;;;;2.35;1.08;;;;;;;18.25;71.03;100608.31;6386492;22;20033;-89
2022/10/24 12:35:45;;;;;;;3.33;1.00;;;;;;;18.26;70.98;100603.06;6373826;22;19994;-89
2022/10/24 12:38:34;;;;;;;1.92;0.80;;;;;;;18.25;71.12;100608.31;6353361;22;20011;-90
2022/10/24 12:41:31;;;;;;;2.40;0.77;;;;;;;18.26;71.00;100605.66;6346657;22;20006;-89
2022/10/24 12:44:35;;;;;;;2.65;0.80;;;;;;;18.25;70.90;100603.97;6344869;22;20040;-88
2022/10/24 12:47:24;;;;;;;2.65;0.95;;;;;;;18.24;70.82;100604.81;6344262;22;20011;-88
2022/10/24 12:49:49;;;;;;;3.47;1.13;;;;;;;18.24;70.89;100610.03;6344892;22;20003;-88
2022/10/24 12:53:10;;;;;;;3.78;1.00;;;;;;;18.25;70.95;100616.13;6292742;22;20089;-89
2022/10/24 12:55:36;;;;;;;2.47;1.00;;;;;;;18.23;70.94;100610.94;6301119;22;20006;-88
2022/10/24 12:58:27;;;;;;;3.88;1.00;;;;;;;18.24;70.90;100607.44;6382209;22;20010;-89
2022/10/24 13:01:05;;;;;;;2.35;0.90;;;;;;;18.26;71.00;100616.09;6344863;22;20006;-90
2022/10/24 13:04:17;;;;;;;2.53;0.90;;;;;;;18.26;70.78;100618.69;6371111;22;20015;-89
2022/10/24 13:07:04;;;;;;;2.75;1.00;;;;;;;18.25;70.73;100624.78;6344681;22;20342;-90
2022/10/24 13:09:43;;;;;;;3.28;1.10;;;;;;;18.25;70.82;100616.13;6344497;22;20061;-90
2022/10/24 13:12:47;;;;;;;2.60;0.88;;;;;;;18.23;70.74;100621.34;6346336;22;20359;-89
2022/10/24 13:15:24;;;;;;;2.15;0.95;;;;;;;18.24;70.78;100624.81;6346719;22;20022;-91
2022/10/24 13:18:03;;;;;;;2.92;1.02;;;;;;;18.23;70.76;100626.56;6346953;22;20067;-90
2022/10/24 13:20:36;;;;;;;1.60;0.90;;;;;;;18.21;70.77;100623.13;6374499;22;20010;-90
2022/10/24 13:23:04;;;;;;;2.63;0.88;;;;;;;18.20;70.76;100629.19;6346528;22;20016;-92
2022/10/24 13:25:35;;;;;;;3.05;0.90;;;;;;;18.21;70.86;100625.72;6346846;22;20010;-90
2022/10/24 13:28:21;;;;;;;1.90;0.63;;;;;;;18.23;70.73;100633.53;6373451;22;20011;-90
2022/10/24 13:30:47;;;;;;;1.75;0.80;;;;;;;18.22;70.59;100632.63;6347143;22;20032;-90
2022/10/24 13:33:35;;;;;;;2.78;0.88;;;;;;;18.23;70.66;100626.56;6321089;22;20014;-91
2022/10/24 13:36:13;;;;;;;2.58;0.90;;;;;;;18.23;70.76;100626.56;6350717;22;20014;-88
2022/10/24 13:38:46;;;;;;;2.28;0.85;;;;;;;18.22;70.67;100624.81;6395022;22;19998;-86
2022/10/24 13:41:20;;;;;;;2.80;0.83;;;;;;;18.22;70.68;100630.03;6359852;22;19994;-89
2022/10/24 13:43:48;;;;;;;2.08;0.90;;;;;;;18.23;70.75;100631.78;6382585;22;20228;-89
2022/10/24 13:46:37;;;;;;;2.00;0.85;;;;;;;18.23;70.54;100633.53;6373658;22;20010;-89
2022/10/24 13:49:05;;;;;;;2.08;0.80;;;;;;;18.22;70.64;100653.47;6345935;22;20002;-89
2022/10/24 13:51:33;;;;;;;3.10;0.90;;;;;;;18.22;70.73;100643.06;6346147;22;19998;-91
2022/10/24 13:54:18;;;;;;;1.83;0.88;;;;;;;18.22;70.67;100648.25;6347075;22;20006;-90
2022/10/24 13:56:45;;;;;;;1.75;0.70;;;;;;;18.19;70.47;100643.13;6346891;22;20430;-92
2022/10/24 13:59:35;;;;;;;2.95;1.00;;;;;;;18.21;70.78;100653.53;6322350;22;20014;-90
2022/10/24 14:02:13;;;;;;;3.42;0.85;;;;;;;18.20;70.66;100652.63;6347670;22;20006;-90
2022/10/24 14:04:45;;;;;;;2.15;0.90;;;;;;;18.20;70.84;100664.81;6346242;22;20017;-91
2022/10/24 14:07:18;;;;;;;4.13;0.90;;;;;;;18.19;70.87;100653.53;6320332;22;20017;-90
2022/10/24 14:09:48;;;;;;;;;;;;;;;18.19;70.87;100666.56;6346800;22;20029;-92
2022/10/24 14:12:20;;;;;;;2.05;0.75;;;;;;;18.19;70.95;100663.09;6345941;22;19902;-91
2022/10/24 14:14:48;;;;;;;3.08;0.70;;;;;;;18.19;70.72;100666.56;6347082;22;19998;-90
2022/10/24 14:17:28;;;;;;;2.97;1.00;;;;;;;18.19;70.67;100671.75;6343839;22;20022;-91
2022/10/24 14:20:18;;;;;;;11.80;2.60;;;;;;;18.19;70.81;100676.97;6347594;22;20007;-89
2022/10/24 14:22:43;;;;;;;18.88;5.00;;;;;;;18.17;70.64;100665.72;6361594;22;20340;-90
2022/10/24 14:25:31;;;;;;;13.95;3.72;;;;;;;18.18;70.59;100669.19;6346530;22;20031;-91
2022/10/24 14:28:00;;;;;;;14.07;3.90;;;;;;;18.16;70.60;100673.53;6346944;22;20101;-91
2022/10/24 14:30:27;;;;;;;14.48;3.97;;;;;;;18.17;70.50;100675.28;6373498;22;20007;-90
2022/10/24 14:33:11;;;;;;;13.60;4.32;;;;;;;18.18;70.64;100677.00;6347800;22;20002;-90
2022/10/24 14:35:37;;;;;;;13.45;3.42;;;;;;;18.18;70.41;100680.47;6348699;22;20010;-92
2022/10/24 14:38:03;;;;;;;11.45;3.67;;;;;;;18.17;70.49;100678.75;6323995;22;20078;-91
2022/10/24 14:40:30;;;;;;;8.65;3.28;;;;;;;18.18;70.33;100690.00;6323090;22;20063;-91
2022/10/24 14:42:55;;;;;;;12.13;3.75;;;;;;;18.17;70.27;100683.94;6324802;22;20006;-91
2022/10/24 14:45:24;;;;;;;10.93;3.55;;;;;;;18.17;70.38;100691.75;6327633;22;20014;-92
2022/10/24 14:47:52;;;;;;;11.75;3.20;;;;;;;18.17;70.14;100689.16;6353496;22;20087;-92
2022/10/24 14:50:34;;;;;;;9.57;2.92;;;;;;;18.17;70.13;100694.38;6377353;22;20002;-91
2022/10/24 14:52:59;;;;;;;10.23;3.33;;;;;;;18.18;70.24;100682.19;6351008;22;20006;-91
2022/10/24 14:55:25;;;;;;;9.52;2.85;;;;;;;18.16;70.27;100695.25;6322204;22;20002;-91
2022/10/24 14:57:52;;;;;;;10.90;3.10;;;;;;;18.16;70.48;100689.16;6321618;22;20156;-90
2022/10/24 15:00:23;;;;;;;8.98;3.08;;;;;;;18.17;70.34;100689.16;6373486;22;20010;-91
2022/10/24 15:02:51;;;;;;;7.43;2.60;;;;;;;18.16;70.00;100689.16;6389162;22;19998;-92
2022/10/24 15:05:21;;;;;;;6.97;2.45;;;;;;;18.15;70.04;100688.31;6362967;22;20070;-91